VOZ852 YSSY-PHNL
Flight info
| Callsign | VOZ852 |
|---|---|
| Flight time | N/A |
| Altitude | 33000 |
| Route | OLSEM Y193 BANDA DCT CBULA DCT 2831S15536E 2448S15945E 2221S16300E/N0488F350 2116S16422E 1816S16821E 1432S17221E 1008S17619E 0730S17821E 0500S17953W 0442S17940W 0257S17824W 0041N17530W/N0483F370 0503N17127W 0750N16928W 1210N16626W 1644N16329W 1904N16150W DCT CHOKO OPACA4 |
| Aircraft | B77W/H-SDE1E2E3FGHIJ2J3J4J5M1RWXY/LB1D1 |
Departure
| Time | 2026-04-22 11:57 |
|---|---|
| Airport | Sydney Kingsford Smith International Airport (YSSY) |
Arrival
| Time | N/A |
|---|---|
| Airport | Daniel K. Inouye International Airport (PHNL) |
| Time | Latitude | Longitude | Altitude | Speed | Heading |
|---|---|---|---|---|---|
| 2026-04-22 11:10 | -33.94062 | 151.16382 | 31 ft | 0 kts | 44° |
| 2026-04-22 11:43 | -33.94067 | 151.16377 | 31 ft | 2 kts | 49° |
| 2026-04-22 11:43 | -33.94075 | 151.16362 | 31 ft | 2 kts | 70° |
| 2026-04-22 11:44 | -33.94078 | 151.16345 | 31 ft | 2 kts | 87° |
| 2026-04-22 11:44 | -33.94077 | 151.16327 | 31 ft | 2 kts | 103° |
| 2026-04-22 11:44 | -33.94072 | 151.16310 | 31 ft | 2 kts | 121° |
| 2026-04-22 11:44 | -33.94063 | 151.16295 | 31 ft | 2 kts | 138° |
| 2026-04-22 11:45 | -33.94051 | 151.16284 | 31 ft | 2 kts | 155° |
| 2026-04-22 11:45 | -33.94036 | 151.16280 | 31 ft | 2 kts | 172° |
| 2026-04-22 11:45 | -33.94021 | 151.16278 | 31 ft | 2 kts | 189° |
| 2026-04-22 11:45 | -33.94013 | 151.16281 | 31 ft | 0 kts | 193° |
| 2026-04-22 11:48 | -33.94019 | 151.16280 | 31 ft | 4 kts | 191° |
| 2026-04-22 11:48 | -33.94062 | 151.16273 | 31 ft | 6 kts | 182° |
| 2026-04-22 11:48 | -33.94121 | 151.16284 | 31 ft | 9 kts | 163° |
| 2026-04-22 11:49 | -33.94169 | 151.16316 | 31 ft | 7 kts | 128° |
| 2026-04-22 11:49 | -33.94170 | 151.16368 | 31 ft | 6 kts | 78° |
| 2026-04-22 11:49 | -33.94159 | 151.16426 | 31 ft | 7 kts | 76° |
| 2026-04-22 11:49 | -33.94146 | 151.16487 | 31 ft | 7 kts | 75° |
| 2026-04-22 11:50 | -33.94130 | 151.16554 | 31 ft | 8 kts | 75° |
| 2026-04-22 11:50 | -33.94113 | 151.16625 | 31 ft | 9 kts | 73° |
| 2026-04-22 11:50 | -33.94095 | 151.16699 | 31 ft | 8 kts | 75° |
| 2026-04-22 11:50 | -33.94077 | 151.16774 | 31 ft | 11 kts | 74° |
| 2026-04-22 11:51 | -33.94053 | 151.16879 | 31 ft | 14 kts | 74° |
| 2026-04-22 11:51 | -33.94025 | 151.16998 | 31 ft | 14 kts | 74° |
| 2026-04-22 11:51 | -33.94000 | 151.17104 | 31 ft | 12 kts | 75° |
| 2026-04-22 11:51 | -33.93977 | 151.17195 | 31 ft | 10 kts | 62° |
| 2026-04-22 11:52 | -33.93924 | 151.17210 | 31 ft | 8 kts | 348° |
| 2026-04-22 11:52 | -33.93859 | 151.17195 | 31 ft | 12 kts | 349° |
| 2026-04-22 11:52 | -33.93765 | 151.17171 | 31 ft | 13 kts | 347° |
| 2026-04-22 11:52 | -33.93677 | 151.17148 | 31 ft | 12 kts | 348° |
| 2026-04-22 11:53 | -33.93579 | 151.17123 | 31 ft | 16 kts | 348° |
| 2026-04-22 11:53 | -33.93457 | 151.17091 | 31 ft | 17 kts | 348° |
| 2026-04-22 11:53 | -33.93338 | 151.17049 | 31 ft | 17 kts | 331° |
| 2026-04-22 11:53 | -33.93244 | 151.16965 | 32 ft | 16 kts | 338° |
| 2026-04-22 11:54 | -33.93141 | 151.16933 | 32 ft | 14 kts | 347° |
| 2026-04-22 11:54 | -33.93048 | 151.16908 | 31 ft | 12 kts | 355° |
| 2026-04-22 11:54 | -33.92986 | 151.16956 | 31 ft | 10 kts | 69° |
| 2026-04-22 11:54 | -33.92977 | 151.16992 | 31 ft | 0 kts | 75° |
| 2026-04-22 11:55 | -33.92968 | 151.17032 | 31 ft | 13 kts | 77° |
| 2026-04-22 11:56 | -33.92961 | 151.17146 | 31 ft | 12 kts | 115° |
| 2026-04-22 11:56 | -33.93021 | 151.17184 | 31 ft | 5 kts | 168° |
| 2026-04-22 11:56 | -33.93109 | 151.17206 | 31 ft | 31 kts | 168° |
| 2026-04-22 11:56 | -33.93602 | 151.17333 | 31 ft | 112 kts | 168° |
| 2026-04-22 11:57 | -33.94603 | 151.17592 | 100 ft | 175 kts | 167° |
| 2026-04-22 11:57 | -33.95775 | 151.17891 | 988 ft | 175 kts | 171° |
| 2026-04-22 11:57 | -33.97012 | 151.17903 | 1610 ft | 184 kts | 180° |
| 2026-04-22 11:57 | -33.98362 | 151.17835 | 1890 ft | 206 kts | 180° |
| 2026-04-22 11:58 | -33.99873 | 151.17747 | 2213 ft | 229 kts | 181° |
| 2026-04-22 11:58 | -34.01555 | 151.17633 | 2629 ft | 250 kts | 182° |
| 2026-04-22 11:58 | -34.03266 | 151.17744 | 3454 ft | 250 kts | 167° |
| 2026-04-22 11:58 | -34.04951 | 151.18249 | 4308 ft | 251 kts | 163° |
| 2026-04-22 11:59 | -34.06646 | 151.18819 | 5062 ft | 256 kts | 163° |
| 2026-04-22 11:59 | -34.08382 | 151.19403 | 5866 ft | 258 kts | 163° |
| 2026-04-22 11:59 | -34.10096 | 151.19977 | 6634 ft | 261 kts | 162° |
| 2026-04-22 11:59 | -34.11866 | 151.20567 | 7418 ft | 263 kts | 162° |
| 2026-04-22 12:00 | -34.13654 | 151.21162 | 8212 ft | 265 kts | 162° |
| 2026-04-22 12:00 | -34.15419 | 151.21753 | 8948 ft | 268 kts | 161° |
| 2026-04-22 12:00 | -34.17107 | 151.22681 | 9591 ft | 268 kts | 141° |
| 2026-04-22 12:00 | -34.18403 | 151.24327 | 9939 ft | 270 kts | 121° |
| 2026-04-22 12:01 | -34.19067 | 151.26398 | 9971 ft | 269 kts | 99° |
| 2026-04-22 12:01 | -34.18993 | 151.28671 | 9979 ft | 278 kts | 76° |
| 2026-04-22 12:01 | -34.18082 | 151.30814 | 10305 ft | 301 kts | 53° |
| 2026-04-22 12:01 | -34.16358 | 151.32394 | 10702 ft | 324 kts | 25° |
| 2026-04-22 12:02 | -34.14143 | 151.32781 | 11551 ft | 330 kts | 355° |
| 2026-04-22 12:02 | -34.11918 | 151.32202 | 12460 ft | 329 kts | 349° |
| 2026-04-22 12:02 | -34.09627 | 151.31868 | 12998 ft | 331 kts | 9° |
| 2026-04-22 12:02 | -34.07452 | 151.32568 | 13485 ft | 330 kts | 30° |
| 2026-04-22 12:03 | -34.05430 | 151.33833 | 14283 ft | 327 kts | 33° |
| 2026-04-22 12:03 | -34.03423 | 151.35153 | 14965 ft | 331 kts | 33° |
| 2026-04-22 12:03 | -34.01360 | 151.36517 | 15297 ft | 346 kts | 33° |
| 2026-04-22 12:03 | -33.99206 | 151.37942 | 15650 ft | 361 kts | 33° |
| 2026-04-22 12:04 | -33.96949 | 151.39432 | 16162 ft | 370 kts | 33° |
| 2026-04-22 12:04 | -33.94692 | 151.40918 | 16858 ft | 374 kts | 33° |
| 2026-04-22 12:04 | -33.92411 | 151.42419 | 17576 ft | 377 kts | 33° |
| 2026-04-22 12:04 | -33.90107 | 151.43935 | 18246 ft | 381 kts | 34° |
| 2026-04-22 12:05 | -33.87792 | 151.45456 | 18871 ft | 385 kts | 34° |
| 2026-04-22 12:05 | -33.85398 | 151.47029 | 19396 ft | 393 kts | 34° |
| 2026-04-22 12:05 | -33.82988 | 151.48610 | 19983 ft | 398 kts | 34° |
| 2026-04-22 12:05 | -33.80550 | 151.50209 | 20575 ft | 402 kts | 34° |
| 2026-04-22 12:06 | -33.78044 | 151.51852 | 20940 ft | 413 kts | 33° |
| 2026-04-22 12:06 | -33.75495 | 151.53523 | 21157 ft | 427 kts | 33° |
| 2026-04-22 12:06 | -33.72865 | 151.55243 | 21597 ft | 435 kts | 33° |
| 2026-04-22 12:06 | -33.70202 | 151.56981 | 22206 ft | 438 kts | 33° |
| 2026-04-22 12:07 | -33.67515 | 151.58733 | 22784 ft | 442 kts | 33° |
| 2026-04-22 12:07 | -33.64797 | 151.60503 | 23267 ft | 448 kts | 33° |
| 2026-04-22 12:07 | -33.62101 | 151.62399 | 23739 ft | 450 kts | 38° |
| 2026-04-22 12:07 | -33.59468 | 151.64514 | 24210 ft | 455 kts | 39° |
| 2026-04-22 12:08 | -33.56846 | 151.66625 | 24700 ft | 460 kts | 38° |
| 2026-04-22 12:08 | -33.54146 | 151.68782 | 25169 ft | 465 kts | 37° |
| 2026-04-22 12:08 | -33.51417 | 151.70920 | 25595 ft | 472 kts | 34° |
| 2026-04-22 12:08 | -33.48487 | 151.72669 | 26023 ft | 482 kts | 25° |
| 2026-04-22 12:09 | -33.45278 | 151.73929 | 26460 ft | 489 kts | 18° |
| 2026-04-22 12:09 | -33.41971 | 151.75011 | 26925 ft | 493 kts | 17° |
| 2026-04-22 12:09 | -33.38625 | 151.76086 | 27336 ft | 498 kts | 17° |
| 2026-04-22 12:09 | -33.35291 | 151.77159 | 27738 ft | 503 kts | 17° |
| 2026-04-22 12:10 | -33.31879 | 151.78258 | 28131 ft | 508 kts | 17° |
| 2026-04-22 12:10 | -33.28450 | 151.79362 | 28555 ft | 512 kts | 17° |
| 2026-04-22 12:10 | -33.24983 | 151.80318 | 28904 ft | 517 kts | 13° |
| 2026-04-22 12:10 | -33.21417 | 151.81198 | 29343 ft | 521 kts | 12° |
| 2026-04-22 12:11 | -33.17909 | 151.82173 | 29809 ft | 522 kts | 15° |
| 2026-04-22 12:11 | -33.14382 | 151.83305 | 30336 ft | 523 kts | 16° |
| 2026-04-22 12:11 | -33.10876 | 151.84442 | 30907 ft | 522 kts | 15° |
| 2026-04-22 12:11 | -33.07390 | 151.85571 | 31505 ft | 520 kts | 15° |
| 2026-04-22 12:12 | -33.03910 | 151.86697 | 32019 ft | 519 kts | 15° |
| 2026-04-22 12:12 | -33.00428 | 151.87823 | 32497 ft | 519 kts | 15° |
| 2026-04-22 12:12 | -32.96947 | 151.88948 | 32991 ft | 517 kts | 14° |
| 2026-04-22 12:12 | -32.93492 | 151.90063 | 33316 ft | 519 kts | 14° |
| 2026-04-22 12:13 | -32.86483 | 151.92339 | 33330 ft | 517 kts | 14° |
| 2026-04-22 12:13 | -32.79567 | 151.94563 | 33332 ft | 519 kts | 14° |
| 2026-04-22 12:14 | -32.72564 | 151.96814 | 33330 ft | 518 kts | 14° |
| 2026-04-22 12:14 | -32.65604 | 151.99048 | 33335 ft | 519 kts | 14° |
| 2026-04-22 12:15 | -32.58641 | 152.01277 | 33334 ft | 518 kts | 14° |
| 2026-04-22 12:15 | -32.51679 | 152.03503 | 33326 ft | 520 kts | 14° |
| 2026-04-22 12:16 | -32.44672 | 152.05740 | 33332 ft | 517 kts | 14° |
| 2026-04-22 12:16 | -32.37740 | 152.07950 | 33334 ft | 519 kts | 13° |
| 2026-04-22 12:17 | -32.30742 | 152.10178 | 33340 ft | 518 kts | 14° |
| 2026-04-22 12:17 | -32.23774 | 152.12392 | 33341 ft | 520 kts | 13° |
| 2026-04-22 12:18 | -32.16788 | 152.14607 | 33339 ft | 519 kts | 13° |
| 2026-04-22 12:18 | -32.09848 | 152.16806 | 33342 ft | 520 kts | 13° |
| 2026-04-22 12:19 | -32.02841 | 152.19022 | 33340 ft | 520 kts | 13° |
| 2026-04-22 12:19 | -31.95820 | 152.21239 | 33343 ft | 520 kts | 13° |
| 2026-04-22 12:20 | -31.88863 | 152.23431 | 33334 ft | 520 kts | 13° |
| 2026-04-22 12:20 | -31.81857 | 152.25636 | 33334 ft | 520 kts | 13° |
| 2026-04-22 12:21 | -31.74853 | 152.27838 | 33336 ft | 518 kts | 13° |
| 2026-04-22 12:21 | -31.67916 | 152.30014 | 33333 ft | 519 kts | 13° |
| 2026-04-22 12:22 | -31.61077 | 152.32156 | 33334 ft | 517 kts | 13° |
| 2026-04-22 12:22 | -31.54076 | 152.34346 | 33332 ft | 517 kts | 13° |
| 2026-04-22 12:23 | -31.47256 | 152.36476 | 33339 ft | 517 kts | 13° |
| 2026-04-22 12:23 | -31.40190 | 152.38680 | 33335 ft | 516 kts | 13° |
| 2026-04-22 12:24 | -31.33075 | 152.40895 | 33337 ft | 516 kts | 13° |
| 2026-04-22 12:24 | -31.25901 | 152.43124 | 33338 ft | 517 kts | 13° |
| 2026-04-22 12:25 | -31.18693 | 152.45361 | 33340 ft | 516 kts | 13° |
| 2026-04-22 12:25 | -31.11704 | 152.47528 | 33334 ft | 515 kts | 13° |
| 2026-04-22 12:26 | -31.04796 | 152.49664 | 33337 ft | 515 kts | 13° |
| 2026-04-22 12:26 | -30.97850 | 152.51811 | 33337 ft | 513 kts | 12° |
| 2026-04-22 12:27 | -30.90935 | 152.53944 | 33329 ft | 514 kts | 12° |
| 2026-04-22 12:27 | -30.84271 | 152.56851 | 33328 ft | 518 kts | 28° |
| 2026-04-22 12:28 | -30.78518 | 152.61867 | 33325 ft | 520 kts | 46° |
| 2026-04-22 12:28 | -30.74180 | 152.68626 | 33314 ft | 519 kts | 60° |
| 2026-04-22 12:29 | -30.70554 | 152.75848 | 33304 ft | 521 kts | 61° |
| 2026-04-22 12:29 | -30.66900 | 152.83109 | 33298 ft | 520 kts | 60° |
| 2026-04-22 12:30 | -30.61402 | 152.93968 | 33304 ft | 521 kts | 60° |
| 2026-04-22 12:31 | -30.57720 | 153.01209 | 33288 ft | 522 kts | 60° |
| 2026-04-22 12:31 | -30.54037 | 153.08434 | 33288 ft | 522 kts | 60° |
| 2026-04-22 12:32 | -30.50335 | 153.15678 | 33287 ft | 523 kts | 60° |
| 2026-04-22 12:32 | -30.44789 | 153.26504 | 33281 ft | 523 kts | 60° |
| 2026-04-22 12:33 | -30.41074 | 153.33739 | 33281 ft | 524 kts | 60° |
| 2026-04-22 12:33 | -30.37358 | 153.40961 | 33271 ft | 524 kts | 60° |
| 2026-04-22 12:34 | -30.33619 | 153.48215 | 33271 ft | 525 kts | 60° |
| 2026-04-22 12:34 | -30.29878 | 153.55460 | 33272 ft | 525 kts | 60° |
| 2026-04-22 12:35 | -30.25819 | 153.62457 | 33262 ft | 525 kts | 49° |
| 2026-04-22 12:35 | -30.20738 | 153.68543 | 33258 ft | 528 kts | 44° |
| 2026-04-22 12:36 | -30.15571 | 153.74542 | 33254 ft | 527 kts | 44° |
| 2026-04-22 12:36 | -30.10414 | 153.80518 | 33249 ft | 526 kts | 44° |
| 2026-04-22 12:37 | -30.05236 | 153.86508 | 33251 ft | 527 kts | 44° |
| 2026-04-22 12:37 | -30.00067 | 153.92477 | 33247 ft | 526 kts | 43° |
| 2026-04-22 12:38 | -29.94914 | 153.98418 | 33244 ft | 525 kts | 43° |
| 2026-04-22 12:38 | -29.89750 | 154.04362 | 33245 ft | 527 kts | 43° |
| 2026-04-22 12:39 | -29.81943 | 154.13330 | 33235 ft | 528 kts | 43° |
| 2026-04-22 12:40 | -29.76756 | 154.19278 | 33239 ft | 528 kts | 43° |
| 2026-04-22 12:40 | -29.71561 | 154.25224 | 33236 ft | 530 kts | 43° |
| 2026-04-22 12:41 | -29.66343 | 154.31189 | 33236 ft | 528 kts | 43° |
| 2026-04-22 12:41 | -29.61120 | 154.37149 | 33235 ft | 529 kts | 43° |
| 2026-04-22 12:42 | -29.55909 | 154.43086 | 33235 ft | 530 kts | 43° |
| 2026-04-22 12:42 | -29.50680 | 154.49036 | 33235 ft | 529 kts | 43° |
| 2026-04-22 12:43 | -29.45465 | 154.54959 | 33230 ft | 530 kts | 43° |
| 2026-04-22 12:43 | -29.40227 | 154.60901 | 33228 ft | 530 kts | 43° |
| 2026-04-22 12:44 | -29.34988 | 154.66834 | 33220 ft | 530 kts | 42° |
| 2026-04-22 12:44 | -29.29742 | 154.72766 | 33218 ft | 531 kts | 42° |
| 2026-04-22 12:45 | -29.24489 | 154.78697 | 33218 ft | 530 kts | 42° |
| 2026-04-22 12:45 | -29.19234 | 154.84621 | 33222 ft | 532 kts | 42° |
| 2026-04-22 12:46 | -29.13965 | 154.90552 | 33218 ft | 531 kts | 41° |
| 2026-04-22 12:46 | -29.08725 | 154.96439 | 33220 ft | 531 kts | 41° |
| 2026-04-22 12:47 | -29.03430 | 155.02382 | 33218 ft | 530 kts | 41° |
| 2026-04-22 12:47 | -28.98201 | 155.08241 | 33212 ft | 531 kts | 41° |
| 2026-04-22 12:48 | -28.92907 | 155.14163 | 33201 ft | 530 kts | 41° |
| 2026-04-22 12:48 | -28.87645 | 155.20042 | 33193 ft | 531 kts | 41° |
| 2026-04-22 12:49 | -28.82378 | 155.25917 | 33193 ft | 531 kts | 41° |
| 2026-04-22 12:49 | -28.77099 | 155.31796 | 33192 ft | 531 kts | 41° |
| 2026-04-22 12:50 | -28.71790 | 155.37700 | 33195 ft | 533 kts | 41° |
| 2026-04-22 12:50 | -28.66495 | 155.43581 | 33200 ft | 532 kts | 41° |
| 2026-04-22 12:51 | -28.61216 | 155.49434 | 33203 ft | 532 kts | 41° |
| 2026-04-22 12:51 | -28.55905 | 155.55313 | 33201 ft | 532 kts | 41° |
| 2026-04-22 12:52 | -28.50640 | 155.61147 | 33198 ft | 532 kts | 42° |
| 2026-04-22 12:52 | -28.45467 | 155.67209 | 33185 ft | 532 kts | 43° |
| 2026-04-22 12:53 | -28.40342 | 155.73238 | 33186 ft | 533 kts | 42° |
| 2026-04-22 12:53 | -28.35200 | 155.79266 | 33179 ft | 533 kts | 43° |
| 2026-04-22 12:54 | -28.29998 | 155.85347 | 33176 ft | 533 kts | 42° |
| 2026-04-22 12:54 | -28.24915 | 155.91278 | 33171 ft | 532 kts | 42° |
| 2026-04-22 12:55 | -28.19740 | 155.97305 | 33169 ft | 532 kts | 42° |
| 2026-04-22 12:55 | -28.14579 | 156.03305 | 33168 ft | 532 kts | 42° |
| 2026-04-22 12:56 | -28.09408 | 156.09308 | 33167 ft | 533 kts | 42° |
| 2026-04-22 12:56 | -28.04226 | 156.15314 | 33165 ft | 533 kts | 42° |
| 2026-04-22 12:57 | -27.99056 | 156.21297 | 33161 ft | 532 kts | 42° |
| 2026-04-22 12:57 | -27.93872 | 156.27287 | 33162 ft | 533 kts | 42° |
| 2026-04-22 12:58 | -27.88702 | 156.33252 | 33161 ft | 533 kts | 42° |
| 2026-04-22 12:58 | -27.83486 | 156.39262 | 33162 ft | 533 kts | 42° |
| 2026-04-22 12:59 | -27.78326 | 156.45200 | 33161 ft | 533 kts | 42° |
| 2026-04-22 12:59 | -27.73112 | 156.51189 | 33165 ft | 533 kts | 42° |
| 2026-04-22 13:00 | -27.67914 | 156.57152 | 33165 ft | 533 kts | 41° |
| 2026-04-22 13:00 | -27.62721 | 156.63101 | 33166 ft | 533 kts | 42° |
| 2026-04-22 13:01 | -27.57539 | 156.69029 | 33154 ft | 532 kts | 41° |
| 2026-04-22 13:01 | -27.52316 | 156.74995 | 33154 ft | 532 kts | 41° |
| 2026-04-22 13:02 | -27.47148 | 156.80890 | 33155 ft | 532 kts | 41° |
| 2026-04-22 13:02 | -27.41930 | 156.86833 | 33156 ft | 533 kts | 41° |
| 2026-04-22 13:03 | -27.36733 | 156.92744 | 33155 ft | 531 kts | 41° |
| 2026-04-22 13:03 | -27.31508 | 156.98679 | 33156 ft | 533 kts | 41° |
| 2026-04-22 13:04 | -27.26308 | 157.04576 | 33160 ft | 533 kts | 41° |
| 2026-04-22 13:04 | -27.21097 | 157.10477 | 33158 ft | 533 kts | 41° |
| 2026-04-22 13:05 | -27.15879 | 157.16379 | 33154 ft | 532 kts | 40° |
| 2026-04-22 13:05 | -27.10661 | 157.22272 | 33161 ft | 533 kts | 41° |
| 2026-04-22 13:06 | -27.05451 | 157.28148 | 33157 ft | 533 kts | 40° |
| 2026-04-22 13:06 | -27.00208 | 157.34052 | 33150 ft | 533 kts | 40° |
| 2026-04-22 13:07 | -26.94980 | 157.39932 | 33146 ft | 533 kts | 40° |
| 2026-04-22 13:07 | -26.89738 | 157.45819 | 33138 ft | 532 kts | 40° |
| 2026-04-22 13:08 | -26.84515 | 157.51675 | 33139 ft | 534 kts | 40° |
| 2026-04-22 13:08 | -26.79274 | 157.57547 | 33151 ft | 533 kts | 40° |
| 2026-04-22 13:09 | -26.74049 | 157.63390 | 33148 ft | 533 kts | 40° |
| 2026-04-22 13:09 | -26.68813 | 157.69237 | 33130 ft | 533 kts | 40° |
| 2026-04-22 13:10 | -26.63567 | 157.75089 | 33129 ft | 533 kts | 40° |
| 2026-04-22 13:10 | -26.58303 | 157.80953 | 33124 ft | 532 kts | 40° |
| 2026-04-22 13:11 | -26.53087 | 157.86754 | 33129 ft | 532 kts | 40° |
| 2026-04-22 13:11 | -26.47821 | 157.92603 | 33131 ft | 532 kts | 40° |
| 2026-04-22 13:12 | -26.42578 | 157.98419 | 33137 ft | 532 kts | 40° |
| 2026-04-22 13:12 | -26.37337 | 158.04224 | 33136 ft | 532 kts | 40° |
| 2026-04-22 13:13 | -26.32090 | 158.10028 | 33139 ft | 532 kts | 40° |
| 2026-04-22 13:13 | -26.26839 | 158.15830 | 33141 ft | 532 kts | 39° |
| 2026-04-22 13:14 | -26.21583 | 158.21628 | 33140 ft | 532 kts | 40° |
| 2026-04-22 13:14 | -26.16321 | 158.27425 | 33143 ft | 532 kts | 39° |
| 2026-04-22 13:15 | -26.11061 | 158.33212 | 33140 ft | 532 kts | 40° |
| 2026-04-22 13:15 | -26.05786 | 158.39009 | 33141 ft | 532 kts | 39° |
| 2026-04-22 13:16 | -26.00507 | 158.44801 | 33141 ft | 533 kts | 39° |
| 2026-04-22 13:16 | -25.95284 | 158.50526 | 33137 ft | 531 kts | 39° |
| 2026-04-22 13:17 | -25.89998 | 158.56311 | 33135 ft | 533 kts | 39° |
| 2026-04-22 13:17 | -25.84745 | 158.62053 | 33133 ft | 532 kts | 39° |
| 2026-04-22 13:18 | -25.79456 | 158.67825 | 33114 ft | 532 kts | 39° |
| 2026-04-22 13:18 | -25.74189 | 158.73567 | 33117 ft | 532 kts | 39° |
| 2026-04-22 13:19 | -25.68889 | 158.79338 | 33112 ft | 531 kts | 39° |
| 2026-04-22 13:19 | -25.63615 | 158.85071 | 33114 ft | 532 kts | 39° |
| 2026-04-22 13:20 | -25.58343 | 158.90796 | 33118 ft | 530 kts | 39° |
| 2026-04-22 13:20 | -25.53096 | 158.96486 | 33112 ft | 531 kts | 39° |
| 2026-04-22 13:21 | -25.47818 | 159.02202 | 33117 ft | 530 kts | 39° |
| 2026-04-22 13:21 | -25.42555 | 159.07895 | 33118 ft | 529 kts | 39° |
| 2026-04-22 13:22 | -25.37293 | 159.13579 | 33120 ft | 530 kts | 39° |
| 2026-04-22 13:22 | -25.31995 | 159.19293 | 33122 ft | 529 kts | 39° |
| 2026-04-22 13:23 | -25.26729 | 159.24966 | 33118 ft | 530 kts | 39° |
| 2026-04-22 13:23 | -25.21468 | 159.30629 | 33119 ft | 528 kts | 39° |
| 2026-04-22 13:24 | -25.16182 | 159.36308 | 33123 ft | 530 kts | 39° |
| 2026-04-22 13:24 | -25.10907 | 159.41971 | 33124 ft | 529 kts | 39° |
| 2026-04-22 13:25 | -25.05631 | 159.47626 | 33122 ft | 530 kts | 39° |
| 2026-04-22 13:25 | -25.00359 | 159.53270 | 33127 ft | 529 kts | 39° |
| 2026-04-22 13:26 | -24.95061 | 159.58934 | 33124 ft | 529 kts | 39° |
| 2026-04-22 13:26 | -24.89811 | 159.64542 | 33125 ft | 529 kts | 39° |
| 2026-04-22 13:27 | -24.84544 | 159.70160 | 33106 ft | 527 kts | 38° |
| 2026-04-22 13:27 | -24.79307 | 159.75906 | 33099 ft | 533 kts | 44° |
| 2026-04-22 13:28 | -24.74650 | 159.82240 | 33106 ft | 534 kts | 46° |
| 2026-04-22 13:28 | -24.70017 | 159.88617 | 33106 ft | 536 kts | 46° |
| 2026-04-22 13:29 | -24.65369 | 159.94991 | 33108 ft | 535 kts | 46° |
| 2026-04-22 13:29 | -24.60711 | 160.01361 | 33109 ft | 534 kts | 46° |
| 2026-04-22 13:30 | -24.56044 | 160.07729 | 33105 ft | 533 kts | 46° |
| 2026-04-22 13:30 | -24.51403 | 160.14049 | 33105 ft | 532 kts | 46° |
| 2026-04-22 13:31 | -24.46747 | 160.20378 | 33105 ft | 533 kts | 46° |
| 2026-04-22 13:31 | -24.42066 | 160.26735 | 33106 ft | 534 kts | 46° |
| 2026-04-22 13:32 | -24.37402 | 160.33058 | 33107 ft | 533 kts | 46° |
| 2026-04-22 13:32 | -24.32750 | 160.39357 | 33103 ft | 534 kts | 46° |
| 2026-04-22 13:33 | -24.28076 | 160.45679 | 33104 ft | 532 kts | 46° |
| 2026-04-22 13:33 | -24.23420 | 160.51965 | 33108 ft | 533 kts | 46° |
| 2026-04-22 13:34 | -24.18761 | 160.58250 | 33107 ft | 533 kts | 46° |
| 2026-04-22 13:34 | -24.14065 | 160.64574 | 33106 ft | 533 kts | 46° |
| 2026-04-22 13:35 | -24.09393 | 160.70860 | 33090 ft | 532 kts | 46° |
| 2026-04-22 13:35 | -24.04712 | 160.77148 | 33093 ft | 534 kts | 46° |
| 2026-04-22 13:36 | -24.00040 | 160.83420 | 33085 ft | 531 kts | 46° |
| 2026-04-22 13:36 | -23.95327 | 160.89734 | 33090 ft | 533 kts | 45° |
| 2026-04-22 13:37 | -23.90641 | 160.96005 | 33091 ft | 532 kts | 45° |
| 2026-04-22 13:37 | -23.85951 | 161.02275 | 33093 ft | 531 kts | 45° |
| 2026-04-22 13:38 | -23.81258 | 161.08540 | 33097 ft | 533 kts | 45° |
| 2026-04-22 13:38 | -23.74215 | 161.17928 | 33097 ft | 535 kts | 45° |
| 2026-04-22 13:39 | -23.69510 | 161.24190 | 33095 ft | 532 kts | 46° |
| 2026-04-22 13:39 | -23.64858 | 161.30373 | 33096 ft | 535 kts | 45° |
| 2026-04-22 13:40 | -23.60127 | 161.36653 | 33103 ft | 532 kts | 45° |
| 2026-04-22 13:40 | -23.55387 | 161.42937 | 33101 ft | 534 kts | 45° |
| 2026-04-22 13:41 | -23.50669 | 161.49184 | 33102 ft | 534 kts | 45° |
| 2026-04-22 13:41 | -23.45911 | 161.55476 | 33107 ft | 535 kts | 45° |
| 2026-04-22 13:42 | -23.41153 | 161.61763 | 33107 ft | 533 kts | 45° |
| 2026-04-22 13:42 | -23.36428 | 161.67995 | 33088 ft | 534 kts | 44° |
| 2026-04-22 13:43 | -23.31686 | 161.74243 | 33089 ft | 534 kts | 44° |
| 2026-04-22 13:43 | -23.26941 | 161.80487 | 33081 ft | 534 kts | 45° |
| 2026-04-22 13:44 | -23.22211 | 161.86705 | 33096 ft | 535 kts | 45° |
| 2026-04-22 13:44 | -23.17459 | 161.92943 | 33093 ft | 535 kts | 45° |
| 2026-04-22 13:45 | -23.12731 | 161.99142 | 33095 ft | 534 kts | 45° |
| 2026-04-22 13:45 | -23.07993 | 162.05347 | 33100 ft | 534 kts | 44° |
| 2026-04-22 13:46 | -23.03264 | 162.11531 | 33086 ft | 534 kts | 44° |
| 2026-04-22 13:46 | -22.98504 | 162.17749 | 33095 ft | 534 kts | 44° |
| 2026-04-22 13:47 | -22.93778 | 162.23917 | 33091 ft | 533 kts | 44° |
| 2026-04-22 13:47 | -22.89028 | 162.30107 | 33090 ft | 533 kts | 44° |
| 2026-04-22 13:48 | -22.84295 | 162.36267 | 33091 ft | 533 kts | 44° |
| 2026-04-22 13:48 | -22.79539 | 162.42450 | 33087 ft | 533 kts | 44° |
| 2026-04-22 13:49 | -22.74827 | 162.48570 | 33092 ft | 533 kts | 44° |
| 2026-04-22 13:49 | -22.70067 | 162.54742 | 33087 ft | 532 kts | 44° |
| 2026-04-22 13:50 | -22.65309 | 162.60907 | 33082 ft | 532 kts | 44° |
| 2026-04-22 13:50 | -22.60587 | 162.67017 | 33067 ft | 532 kts | 44° |
| 2026-04-22 13:51 | -22.55829 | 162.73167 | 33064 ft | 531 kts | 44° |
| 2026-04-22 13:51 | -22.51085 | 162.79289 | 33063 ft | 533 kts | 43° |
| 2026-04-22 13:52 | -22.46362 | 162.85381 | 33062 ft | 532 kts | 44° |
| 2026-04-22 13:52 | -22.41587 | 162.91527 | 33059 ft | 533 kts | 43° |
| 2026-04-22 13:53 | -22.36807 | 162.97678 | 33062 ft | 532 kts | 43° |
| 2026-04-22 13:53 | -22.32044 | 163.03783 | 33060 ft | 532 kts | 43° |
| 2026-04-22 13:54 | -22.27260 | 163.09885 | 33059 ft | 533 kts | 43° |
| 2026-04-22 13:54 | -22.22514 | 163.15935 | 33060 ft | 530 kts | 43° |
| 2026-04-22 13:55 | -22.17724 | 163.22031 | 33061 ft | 533 kts | 43° |
| 2026-04-22 13:55 | -22.12930 | 163.28130 | 33059 ft | 530 kts | 43° |
| 2026-04-22 13:56 | -22.08163 | 163.34183 | 33057 ft | 533 kts | 43° |
| 2026-04-22 13:56 | -22.03393 | 163.40237 | 33054 ft | 530 kts | 43° |
| 2026-04-22 13:57 | -21.98637 | 163.46265 | 33068 ft | 530 kts | 43° |
| 2026-04-22 13:57 | -21.93834 | 163.52344 | 33070 ft | 531 kts | 43° |
| 2026-04-22 13:58 | -21.89066 | 163.58374 | 33061 ft | 528 kts | 43° |
| 2026-04-22 13:58 | -21.84292 | 163.64404 | 33065 ft | 529 kts | 43° |
| 2026-04-22 13:59 | -21.79528 | 163.70416 | 33045 ft | 528 kts | 43° |
| 2026-04-22 13:59 | -21.74752 | 163.76436 | 33045 ft | 526 kts | 42° |
| 2026-04-22 14:00 | -21.70002 | 163.82416 | 33048 ft | 527 kts | 42° |
| 2026-04-22 14:00 | -21.65232 | 163.88414 | 33053 ft | 526 kts | 42° |
| 2026-04-22 14:01 | -21.60505 | 163.94351 | 33056 ft | 527 kts | 42° |
| 2026-04-22 14:01 | -21.55735 | 164.00337 | 33048 ft | 525 kts | 42° |
| 2026-04-22 14:02 | -21.50960 | 164.06320 | 33049 ft | 527 kts | 42° |
| 2026-04-22 14:02 | -21.48553 | 164.09331 | 33271 ft | 533 kts | 42° |
| 2026-04-22 14:02 | -21.46137 | 164.12357 | 33989 ft | 528 kts | 42° |
| 2026-04-22 14:03 | -21.43773 | 164.15321 | 34812 ft | 521 kts | 41° |
| 2026-04-22 14:03 | -21.41419 | 164.18263 | 35033 ft | 523 kts | 41° |
| 2026-04-22 14:03 | -21.36701 | 164.24158 | 35044 ft | 517 kts | 41° |
| 2026-04-22 14:04 | -21.31992 | 164.30031 | 35044 ft | 520 kts | 41° |
| 2026-04-22 14:04 | -21.27294 | 164.35887 | 35043 ft | 517 kts | 41° |
| 2026-04-22 14:05 | -21.22755 | 164.41913 | 35049 ft | 521 kts | 45° |
| 2026-04-22 14:06 | -21.16101 | 164.51114 | 35051 ft | 521 kts | 44° |
| 2026-04-22 14:06 | -21.11659 | 164.57225 | 35056 ft | 520 kts | 44° |
| 2026-04-22 14:07 | -21.07198 | 164.63344 | 35064 ft | 520 kts | 44° |
| 2026-04-22 14:07 | -21.02739 | 164.69446 | 35050 ft | 520 kts | 44° |
| 2026-04-22 14:08 | -20.98297 | 164.75517 | 35060 ft | 521 kts | 44° |
| 2026-04-22 14:08 | -20.93841 | 164.81599 | 35065 ft | 517 kts | 44° |
| 2026-04-22 14:09 | -20.89377 | 164.87680 | 35072 ft | 521 kts | 44° |
| 2026-04-22 14:09 | -20.86960 | 164.90971 | 35072 ft | 519 kts | 44° |